sensor_id;sensor_type;location;lat;lon;timestamp;P1;durP1;ratioP1;P2;durP2;ratioP2
39948;SDS011;29070;48.102;-1.652;2023-12-29T00:04:38;13.63;;;2.28;;
39948;SDS011;29070;48.102;-1.652;2023-12-29T00:09:38;17.35;;;2.35;;
39948;SDS011;29070;48.102;-1.652;2023-12-29T00:14:40;10.30;;;1.80;;
39948;SDS011;29070;48.102;-1.652;2023-12-29T00:19:41;12.43;;;1.80;;
39948;SDS011;29070;48.102;-1.652;2023-12-29T00:24:41;12.43;;;1.40;;
39948;SDS011;29070;48.102;-1.652;2023-12-29T00:29:41;13.03;;;1.87;;
39948;SDS011;29070;48.102;-1.652;2023-12-29T00:34:42;8.40;;;1.75;;
39948;SDS011;29070;48.102;-1.652;2023-12-29T00:39:42;16.10;;;1.20;;
39948;SDS011;29070;48.102;-1.652;2023-12-29T00:44:42;6.28;;;0.98;;
39948;SDS011;29070;48.102;-1.652;2023-12-29T00:49:43;16.70;;;1.70;;
39948;SDS011;29070;48.102;-1.652;2023-12-29T00:54:43;6.33;;;1.50;;
39948;SDS011;29070;48.102;-1.652;2023-12-29T00:59:43;8.27;;;1.20;;
39948;SDS011;29070;48.102;-1.652;2023-12-29T01:04:47;14.90;;;1.48;;
39948;SDS011;29070;48.102;-1.652;2023-12-29T01:09:47;10.90;;;1.90;;
39948;SDS011;29070;48.102;-1.652;2023-12-29T01:14:48;7.53;;;1.67;;
39948;SDS011;29070;48.102;-1.652;2023-12-29T01:19:48;10.27;;;1.60;;
39948;SDS011;29070;48.102;-1.652;2023-12-29T01:24:48;10.03;;;1.63;;
39948;SDS011;29070;48.102;-1.652;2023-12-29T01:29:48;10.20;;;1.60;;
39948;SDS011;29070;48.102;-1.652;2023-12-29T01:34:49;11.93;;;1.97;;
39948;SDS011;29070;48.102;-1.652;2023-12-29T01:39:49;12.03;;;1.23;;
39948;SDS011;29070;48.102;-1.652;2023-12-29T01:44:49;14.97;;;1.93;;
39948;SDS011;29070;48.102;-1.652;2023-12-29T01:49:54;14.88;;;1.83;;
39948;SDS011;29070;48.102;-1.652;2023-12-29T01:54:54;15.38;;;1.75;;
39948;SDS011;29070;48.102;-1.652;2023-12-29T01:59:55;12.73;;;1.60;;
39948;SDS011;29070;48.102;-1.652;2023-12-29T02:04:56;8.03;;;1.50;;
39948;SDS011;29070;48.102;-1.652;2023-12-29T02:09:58;11.05;;;1.70;;
39948;SDS011;29070;48.102;-1.652;2023-12-29T02:14:59;10.15;;;1.38;;
39948;SDS011;29070;48.102;-1.652;2023-12-29T02:20:00;12.48;;;1.20;;
39948;SDS011;29070;48.102;-1.652;2023-12-29T02:25:00;11.70;;;2.10;;
39948;SDS011;29070;48.102;-1.652;2023-12-29T02:30:08;12.00;;;1.90;;
39948;SDS011;29070;48.102;-1.652;2023-12-29T02:35:25;6.35;;;1.88;;
39948;SDS011;29070;48.102;-1.652;2023-12-29T02:40:28;9.65;;;1.13;;
39948;SDS011;29070;48.102;-1.652;2023-12-29T02:45:28;7.85;;;1.50;;
39948;SDS011;29070;48.102;-1.652;2023-12-29T02:50:29;17.93;;;2.10;;
39948;SDS011;29070;48.102;-1.652;2023-12-29T02:55:29;7.63;;;1.27;;
39948;SDS011;29070;48.102;-1.652;2023-12-29T03:00:29;14.55;;;1.55;;
39948;SDS011;29070;48.102;-1.652;2023-12-29T03:05:30;13.87;;;1.90;;
39948;SDS011;29070;48.102;-1.652;2023-12-29T03:10:30;14.80;;;1.93;;
39948;SDS011;29070;48.102;-1.652;2023-12-29T03:15:30;11.07;;;1.80;;
39948;SDS011;29070;48.102;-1.652;2023-12-29T03:20:31;7.93;;;1.67;;
39948;SDS011;29070;48.102;-1.652;2023-12-29T03:25:31;16.50;;;2.27;;
39948;SDS011;29070;48.102;-1.652;2023-12-29T03:30:31;6.43;;;1.33;;
39948;SDS011;29070;48.102;-1.652;2023-12-29T03:35:32;9.23;;;1.20;;
39948;SDS011;29070;48.102;-1.652;2023-12-29T03:40:32;14.35;;;1.25;;
39948;SDS011;29070;48.102;-1.652;2023-12-29T03:45:32;15.57;;;1.40;;
39948;SDS011;29070;48.102;-1.652;2023-12-29T03:50:33;9.80;;;1.23;;
39948;SDS011;29070;48.102;-1.652;2023-12-29T03:55:33;6.03;;;1.17;;
39948;SDS011;29070;48.102;-1.652;2023-12-29T04:00:34;7.67;;;1.77;;
39948;SDS011;29070;48.102;-1.652;2023-12-29T04:05:35;5.38;;;1.27;;
39948;SDS011;29070;48.102;-1.652;2023-12-29T04:10:36;11.70;;;1.60;;
39948;SDS011;29070;48.102;-1.652;2023-12-29T04:15:36;10.67;;;1.70;;
39948;SDS011;29070;48.102;-1.652;2023-12-29T04:20:36;6.47;;;1.25;;
39948;SDS011;29070;48.102;-1.652;2023-12-29T04:25:37;15.23;;;1.60;;
39948;SDS011;29070;48.102;-1.652;2023-12-29T04:30:37;15.47;;;1.60;;
39948;SDS011;29070;48.102;-1.652;2023-12-29T04:35:37;8.02;;;1.15;;
39948;SDS011;29070;48.102;-1.652;2023-12-29T04:40:38;12.57;;;1.30;;
39948;SDS011;29070;48.102;-1.652;2023-12-29T04:45:38;13.73;;;1.97;;
39948;SDS011;29070;48.102;-1.652;2023-12-29T04:50:38;8.33;;;1.33;;
39948;SDS011;29070;48.102;-1.652;2023-12-29T04:55:39;11.80;;;1.50;;
39948;SDS011;29070;48.102;-1.652;2023-12-29T05:00:39;8.52;;;1.17;;
39948;SDS011;29070;48.102;-1.652;2023-12-29T05:05:39;11.80;;;1.27;;
39948;SDS011;29070;48.102;-1.652;2023-12-29T05:10:40;8.00;;;1.00;;
39948;SDS011;29070;48.102;-1.652;2023-12-29T05:15:40;9.45;;;1.58;;
39948;SDS011;29070;48.102;-1.652;2023-12-29T05:20:41;10.02;;;1.55;;
39948;SDS011;29070;48.102;-1.652;2023-12-29T05:25:41;10.07;;;2.20;;
39948;SDS011;29070;48.102;-1.652;2023-12-29T05:30:42;12.70;;;1.87;;
39948;SDS011;29070;48.102;-1.652;2023-12-29T05:35:42;6.07;;;1.90;;
39948;SDS011;29070;48.102;-1.652;2023-12-29T05:40:42;10.87;;;1.50;;
39948;SDS011;29070;48.102;-1.652;2023-12-29T05:45:43;10.35;;;1.55;;
39948;SDS011;29070;48.102;-1.652;2023-12-29T05:50:43;14.20;;;2.20;;
39948;SDS011;29070;48.102;-1.652;2023-12-29T05:55:43;12.77;;;2.10;;
39948;SDS011;29070;48.102;-1.652;2023-12-29T06:00:44;11.30;;;2.20;;
39948;SDS011;29070;48.102;-1.652;2023-12-29T06:05:44;11.73;;;1.53;;
39948;SDS011;29070;48.102;-1.652;2023-12-29T06:10:45;16.75;;;2.00;;
39948;SDS011;29070;48.102;-1.652;2023-12-29T06:15:45;11.90;;;1.35;;
39948;SDS011;29070;48.102;-1.652;2023-12-29T06:20:45;14.40;;;1.93;;
39948;SDS011;29070;48.102;-1.652;2023-12-29T06:25:46;10.30;;;1.60;;
39948;SDS011;29070;48.102;-1.652;2023-12-29T06:30:46;8.43;;;1.40;;
39948;SDS011;29070;48.102;-1.652;2023-12-29T06:35:47;20.53;;;1.70;;
39948;SDS011;29070;48.102;-1.652;2023-12-29T06:40:47;11.68;;;1.45;;
39948;SDS011;29070;48.102;-1.652;2023-12-29T06:45:48;9.23;;;1.37;;
39948;SDS011;29070;48.102;-1.652;2023-12-29T06:50:48;13.20;;;1.80;;
39948;SDS011;29070;48.102;-1.652;2023-12-29T06:55:48;7.72;;;1.02;;
39948;SDS011;29070;48.102;-1.652;2023-12-29T07:00:49;8.80;;;2.03;;
39948;SDS011;29070;48.102;-1.652;2023-12-29T07:05:49;7.33;;;1.20;;
39948;SDS011;29070;48.102;-1.652;2023-12-29T07:10:49;11.73;;;1.60;;
39948;SDS011;29070;48.102;-1.652;2023-12-29T07:15:50;8.15;;;1.45;;
39948;SDS011;29070;48.102;-1.652;2023-12-29T07:20:50;5.93;;;1.40;;
39948;SDS011;29070;48.102;-1.652;2023-12-29T07:25:50;13.70;;;1.52;;
39948;SDS011;29070;48.102;-1.652;2023-12-29T07:30:51;6.10;;;1.00;;
39948;SDS011;29070;48.102;-1.652;2023-12-29T07:35:51;11.52;;;1.50;;
39948;SDS011;29070;48.102;-1.652;2023-12-29T07:40:52;13.55;;;1.70;;
39948;SDS011;29070;48.102;-1.652;2023-12-29T07:45:52;12.57;;;2.00;;
39948;SDS011;29070;48.102;-1.652;2023-12-29T07:50:52;12.27;;;1.73;;
39948;SDS011;29070;48.102;-1.652;2023-12-29T07:55:53;11.87;;;2.37;;
39948;SDS011;29070;48.102;-1.652;2023-12-29T08:00:54;14.50;;;2.25;;
39948;SDS011;29070;48.102;-1.652;2023-12-29T08:05:55;18.03;;;2.63;;
39948;SDS011;29070;48.102;-1.652;2023-12-29T08:10:55;10.35;;;2.08;;
39948;SDS011;29070;48.102;-1.652;2023-12-29T08:15:55;13.17;;;1.87;;
39948;SDS011;29070;48.102;-1.652;2023-12-29T08:20:56;8.93;;;1.67;;
39948;SDS011;29070;48.102;-1.652;2023-12-29T08:25:57;12.17;;;1.50;;
39948;SDS011;29070;48.102;-1.652;2023-12-29T08:31:00;17.00;;;1.83;;
39948;SDS011;29070;48.102;-1.652;2023-12-29T08:36:02;8.67;;;1.23;;
39948;SDS011;29070;48.102;-1.652;2023-12-29T08:41:03;8.30;;;1.52;;
39948;SDS011;29070;48.102;-1.652;2023-12-29T08:46:04;8.82;;;1.33;;
39948;SDS011;29070;48.102;-1.652;2023-12-29T08:51:04;13.93;;;1.43;;
39948;SDS011;29070;48.102;-1.652;2023-12-29T08:56:05;7.15;;;1.45;;
39948;SDS011;29070;48.102;-1.652;2023-12-29T09:01:06;12.40;;;1.50;;
39948;SDS011;29070;48.102;-1.652;2023-12-29T09:06:07;8.77;;;1.48;;
39948;SDS011;29070;48.102;-1.652;2023-12-29T09:11:08;10.43;;;1.70;;
39948;SDS011;29070;48.102;-1.652;2023-12-29T09:16:09;6.10;;;1.10;;
39948;SDS011;29070;48.102;-1.652;2023-12-29T09:21:09;5.60;;;1.38;;
39948;SDS011;29070;48.102;-1.652;2023-12-29T09:26:09;9.37;;;1.10;;
39948;SDS011;29070;48.102;-1.652;2023-12-29T09:31:10;11.93;;;2.00;;
39948;SDS011;29070;48.102;-1.652;2023-12-29T09:36:11;11.38;;;1.45;;
39948;SDS011;29070;48.102;-1.652;2023-12-29T09:41:14;7.07;;;1.03;;
39948;SDS011;29070;48.102;-1.652;2023-12-29T09:46:16;7.40;;;1.10;;
39948;SDS011;29070;48.102;-1.652;2023-12-29T09:51:18;10.82;;;1.48;;
39948;SDS011;29070;48.102;-1.652;2023-12-29T09:56:23;5.43;;;0.90;;
39948;SDS011;29070;48.102;-1.652;2023-12-29T10:01:24;6.28;;;2.20;;
39948;SDS011;29070;48.102;-1.652;2023-12-29T10:06:30;11.60;;;1.42;;
39948;SDS011;29070;48.102;-1.652;2023-12-29T10:11:34;7.68;;;1.48;;
39948;SDS011;29070;48.102;-1.652;2023-12-29T10:16:38;9.93;;;1.33;;
39948;SDS011;29070;48.102;-1.652;2023-12-29T10:26:54;10.55;;;1.00;;
39948;SDS011;29070;48.102;-1.652;2023-12-29T10:31:55;11.07;;;1.23;;
39948;SDS011;29070;48.102;-1.652;2023-12-29T10:36:56;9.73;;;1.93;;
39948;SDS011;29070;48.102;-1.652;2023-12-29T10:42:06;11.40;;;1.35;;
39948;SDS011;29070;48.102;-1.652;2023-12-29T10:47:08;14.35;;;1.73;;
39948;SDS011;29070;48.102;-1.652;2023-12-29T10:52:12;11.65;;;1.33;;
39948;SDS011;29070;48.102;-1.652;2023-12-29T10:57:14;15.68;;;2.00;;
39948;SDS011;29070;48.102;-1.652;2023-12-29T11:02:14;11.57;;;2.23;;
39948;SDS011;29070;48.102;-1.652;2023-12-29T11:07:15;9.07;;;1.58;;
39948;SDS011;29070;48.102;-1.652;2023-12-29T11:12:15;11.87;;;1.53;;
39948;SDS011;29070;48.102;-1.652;2023-12-29T11:17:17;5.47;;;1.02;;
39948;SDS011;29070;48.102;-1.652;2023-12-29T11:22:19;13.52;;;1.52;;
39948;SDS011;29070;48.102;-1.652;2023-12-29T11:27:20;12.10;;;1.90;;
39948;SDS011;29070;48.102;-1.652;2023-12-29T11:32:25;6.65;;;1.05;;
39948;SDS011;29070;48.102;-1.652;2023-12-29T11:42:52;8.85;;;1.30;;
39948;SDS011;29070;48.102;-1.652;2023-12-29T11:47:56;8.18;;;1.95;;
39948;SDS011;29070;48.102;-1.652;2023-12-29T11:52:57;6.03;;;1.10;;
39948;SDS011;29070;48.102;-1.652;2023-12-29T11:57:58;6.82;;;1.60;;
39948;SDS011;29070;48.102;-1.652;2023-12-29T12:02:59;6.88;;;1.20;;
39948;SDS011;29070;48.102;-1.652;2023-12-29T12:08:00;5.70;;;0.85;;
39948;SDS011;29070;48.102;-1.652;2023-12-29T12:13:00;6.60;;;1.20;;
39948;SDS011;29070;48.102;-1.652;2023-12-29T12:18:01;7.73;;;2.60;;
39948;SDS011;29070;48.102;-1.652;2023-12-29T12:23:11;13.75;;;1.80;;
39948;SDS011;29070;48.102;-1.652;2023-12-29T12:28:16;11.00;;;1.48;;
39948;SDS011;29070;48.102;-1.652;2023-12-29T12:33:18;5.78;;;1.40;;
39948;SDS011;29070;48.102;-1.652;2023-12-29T12:38:18;13.00;;;2.23;;
39948;SDS011;29070;48.102;-1.652;2023-12-29T12:43:22;7.45;;;0.95;;
39948;SDS011;29070;48.102;-1.652;2023-12-29T12:53:55;9.82;;;1.10;;
39948;SDS011;29070;48.102;-1.652;2023-12-29T12:58:56;8.30;;;1.40;;
39948;SDS011;29070;48.102;-1.652;2023-12-29T13:03:57;8.30;;;1.35;;
39948;SDS011;29070;48.102;-1.652;2023-12-29T13:08:58;10.93;;;1.42;;
39948;SDS011;29070;48.102;-1.652;2023-12-29T13:14:05;3.83;;;0.85;;
39948;SDS011;29070;48.102;-1.652;2023-12-29T13:19:24;7.10;;;1.33;;
39948;SDS011;29070;48.102;-1.652;2023-12-29T13:24:24;6.63;;;0.88;;
39948;SDS011;29070;48.102;-1.652;2023-12-29T13:29:25;8.63;;;0.80;;
39948;SDS011;29070;48.102;-1.652;2023-12-29T13:45:00;3.38;;;1.10;;
39948;SDS011;29070;48.102;-1.652;2023-12-29T13:50:04;6.88;;;1.27;;
39948;SDS011;29070;48.102;-1.652;2023-12-29T13:55:05;12.77;;;1.17;;
39948;SDS011;29070;48.102;-1.652;2023-12-29T14:00:22;5.95;;;0.98;;
39948;SDS011;29070;48.102;-1.652;2023-12-29T14:10:32;8.02;;;1.15;;
39948;SDS011;29070;48.102;-1.652;2023-12-29T14:15:36;1.38;;;0.40;;
39948;SDS011;29070;48.102;-1.652;2023-12-29T14:20:38;1.90;;;0.38;;
39948;SDS011;29070;48.102;-1.652;2023-12-29T14:25:40;3.05;;;0.82;;
39948;SDS011;29070;48.102;-1.652;2023-12-29T14:30:40;4.65;;;0.73;;
39948;SDS011;29070;48.102;-1.652;2023-12-29T14:35:40;6.05;;;1.15;;
39948;SDS011;29070;48.102;-1.652;2023-12-29T14:40:41;6.07;;;0.93;;
39948;SDS011;29070;48.102;-1.652;2023-12-29T14:45:41;3.53;;;1.00;;
39948;SDS011;29070;48.102;-1.652;2023-12-29T14:50:42;5.90;;;1.20;;
39948;SDS011;29070;48.102;-1.652;2023-12-29T14:55:45;2.97;;;0.75;;
39948;SDS011;29070;48.102;-1.652;2023-12-29T15:00:45;5.78;;;0.60;;
39948;SDS011;29070;48.102;-1.652;2023-12-29T15:05:49;2.40;;;0.50;;
39948;SDS011;29070;48.102;-1.652;2023-12-29T15:10:50;4.57;;;1.02;;
39948;SDS011;29070;48.102;-1.652;2023-12-29T15:15:50;4.60;;;0.80;;
39948;SDS011;29070;48.102;-1.652;2023-12-29T15:20:51;6.25;;;0.90;;
39948;SDS011;29070;48.102;-1.652;2023-12-29T15:25:51;8.90;;;1.00;;
39948;SDS011;29070;48.102;-1.652;2023-12-29T15:30:51;7.47;;;1.60;;
39948;SDS011;29070;48.102;-1.652;2023-12-29T15:35:52;4.40;;;1.57;;
39948;SDS011;29070;48.102;-1.652;2023-12-29T15:40:52;8.98;;;1.20;;
39948;SDS011;29070;48.102;-1.652;2023-12-29T15:45:53;8.98;;;1.38;;
39948;SDS011;29070;48.102;-1.652;2023-12-29T15:50:53;6.73;;;1.70;;
39948;SDS011;29070;48.102;-1.652;2023-12-29T15:55:55;4.35;;;1.30;;
39948;SDS011;29070;48.102;-1.652;2023-12-29T16:00:55;8.23;;;1.63;;
39948;SDS011;29070;48.102;-1.652;2023-12-29T16:05:56;3.45;;;1.65;;
39948;SDS011;29070;48.102;-1.652;2023-12-29T16:11:00;3.60;;;1.23;;
39948;SDS011;29070;48.102;-1.652;2023-12-29T16:16:02;7.67;;;1.67;;
39948;SDS011;29070;48.102;-1.652;2023-12-29T16:21:03;6.70;;;1.67;;
39948;SDS011;29070;48.102;-1.652;2023-12-29T16:26:04;5.57;;;1.50;;
39948;SDS011;29070;48.102;-1.652;2023-12-29T16:31:09;6.97;;;1.73;;
39948;SDS011;29070;48.102;-1.652;2023-12-29T16:36:10;5.95;;;1.67;;
39948;SDS011;29070;48.102;-1.652;2023-12-29T16:41:11;8.75;;;2.70;;
39948;SDS011;29070;48.102;-1.652;2023-12-29T16:46:11;13.53;;;4.07;;
39948;SDS011;29070;48.102;-1.652;2023-12-29T16:51:12;14.13;;;5.20;;
39948;SDS011;29070;48.102;-1.652;2023-12-29T16:56:12;15.97;;;4.50;;
39948;SDS011;29070;48.102;-1.652;2023-12-29T17:01:13;10.50;;;4.22;;
39948;SDS011;29070;48.102;-1.652;2023-12-29T17:06:13;12.32;;;4.75;;
39948;SDS011;29070;48.102;-1.652;2023-12-29T17:11:14;30.85;;;10.63;;
39948;SDS011;29070;48.102;-1.652;2023-12-29T17:16:14;16.08;;;3.97;;
39948;SDS011;29070;48.102;-1.652;2023-12-29T17:21:15;7.35;;;3.10;;
39948;SDS011;29070;48.102;-1.652;2023-12-29T17:26:16;8.43;;;3.15;;
39948;SDS011;29070;48.102;-1.652;2023-12-29T17:31:19;10.48;;;2.42;;
39948;SDS011;29070;48.102;-1.652;2023-12-29T17:36:19;10.03;;;2.23;;
39948;SDS011;29070;48.102;-1.652;2023-12-29T17:41:20;9.80;;;2.13;;
39948;SDS011;29070;48.102;-1.652;2023-12-29T17:46:20;13.45;;;2.58;;
39948;SDS011;29070;48.102;-1.652;2023-12-29T17:51:21;11.50;;;3.13;;
39948;SDS011;29070;48.102;-1.652;2023-12-29T17:56:24;6.28;;;2.25;;
39948;SDS011;29070;48.102;-1.652;2023-12-29T18:01:25;13.90;;;2.60;;
39948;SDS011;29070;48.102;-1.652;2023-12-29T18:06:26;10.57;;;2.45;;
39948;SDS011;29070;48.102;-1.652;2023-12-29T18:11:28;8.35;;;2.15;;
39948;SDS011;29070;48.102;-1.652;2023-12-29T18:16:30;20.40;;;2.40;;
39948;SDS011;29070;48.102;-1.652;2023-12-29T18:21:33;9.50;;;2.20;;
39948;SDS011;29070;48.102;-1.652;2023-12-29T18:26:39;10.88;;;2.60;;
39948;SDS011;29070;48.102;-1.652;2023-12-29T18:31:43;10.57;;;2.20;;
39948;SDS011;29070;48.102;-1.652;2023-12-29T18:36:44;12.15;;;2.38;;
39948;SDS011;29070;48.102;-1.652;2023-12-29T18:41:44;9.80;;;2.37;;
39948;SDS011;29070;48.102;-1.652;2023-12-29T18:46:44;19.97;;;2.57;;
39948;SDS011;29070;48.102;-1.652;2023-12-29T18:51:45;12.70;;;2.43;;
39948;SDS011;29070;48.102;-1.652;2023-12-29T18:56:49;15.50;;;2.45;;
39948;SDS011;29070;48.102;-1.652;2023-12-29T19:01:50;9.25;;;2.42;;
39948;SDS011;29070;48.102;-1.652;2023-12-29T19:06:50;16.80;;;3.47;;
39948;SDS011;29070;48.102;-1.652;2023-12-29T19:11:50;15.47;;;3.03;;
39948;SDS011;29070;48.102;-1.652;2023-12-29T19:16:51;22.70;;;2.83;;
39948;SDS011;29070;48.102;-1.652;2023-12-29T19:21:52;12.77;;;3.25;;
39948;SDS011;29070;48.102;-1.652;2023-12-29T19:26:53;14.40;;;3.45;;
39948;SDS011;29070;48.102;-1.652;2023-12-29T19:31:53;18.83;;;3.80;;
39948;SDS011;29070;48.102;-1.652;2023-12-29T19:36:54;18.05;;;4.55;;
39948;SDS011;29070;48.102;-1.652;2023-12-29T19:41:55;21.67;;;4.47;;
39948;SDS011;29070;48.102;-1.652;2023-12-29T19:46:56;18.23;;;2.53;;
39948;SDS011;29070;48.102;-1.652;2023-12-29T19:51:56;13.67;;;3.97;;
39948;SDS011;29070;48.102;-1.652;2023-12-29T19:56:58;12.82;;;2.70;;
39948;SDS011;29070;48.102;-1.652;2023-12-29T20:01:58;10.87;;;2.70;;
39948;SDS011;29070;48.102;-1.652;2023-12-29T20:06:58;11.00;;;3.10;;
39948;SDS011;29070;48.102;-1.652;2023-12-29T20:11:58;14.70;;;4.10;;
39948;SDS011;29070;48.102;-1.652;2023-12-29T20:16:59;13.87;;;3.80;;
39948;SDS011;29070;48.102;-1.652;2023-12-29T20:21:59;17.83;;;4.05;;
39948;SDS011;29070;48.102;-1.652;2023-12-29T20:27:00;11.17;;;3.37;;
39948;SDS011;29070;48.102;-1.652;2023-12-29T20:32:02;15.82;;;4.10;;
39948;SDS011;29070;48.102;-1.652;2023-12-29T20:37:02;16.48;;;4.10;;
39948;SDS011;29070;48.102;-1.652;2023-12-29T20:42:03;25.75;;;4.28;;
39948;SDS011;29070;48.102;-1.652;2023-12-29T20:47:03;17.83;;;5.38;;
39948;SDS011;29070;48.102;-1.652;2023-12-29T20:52:04;15.70;;;4.10;;
39948;SDS011;29070;48.102;-1.652;2023-12-29T20:57:04;13.40;;;4.00;;
39948;SDS011;29070;48.102;-1.652;2023-12-29T21:02:06;16.65;;;3.55;;
39948;SDS011;29070;48.102;-1.652;2023-12-29T21:07:06;21.37;;;3.17;;
39948;SDS011;29070;48.102;-1.652;2023-12-29T21:12:08;21.77;;;3.10;;
39948;SDS011;29070;48.102;-1.652;2023-12-29T21:17:10;9.52;;;2.30;;
39948;SDS011;29070;48.102;-1.652;2023-12-29T21:22:10;17.70;;;4.17;;
39948;SDS011;29070;48.102;-1.652;2023-12-29T21:27:11;21.13;;;3.77;;
39948;SDS011;29070;48.102;-1.652;2023-12-29T21:32:11;16.83;;;3.58;;
39948;SDS011;29070;48.102;-1.652;2023-12-29T21:37:11;20.23;;;3.23;;
39948;SDS011;29070;48.102;-1.652;2023-12-29T21:42:12;12.67;;;3.27;;
39948;SDS011;29070;48.102;-1.652;2023-12-29T21:47:12;19.23;;;4.55;;
39948;SDS011;29070;48.102;-1.652;2023-12-29T21:52:13;17.17;;;3.87;;
39948;SDS011;29070;48.102;-1.652;2023-12-29T21:57:13;18.83;;;4.47;;
39948;SDS011;29070;48.102;-1.652;2023-12-29T22:02:14;22.07;;;5.17;;
39948;SDS011;29070;48.102;-1.652;2023-12-29T22:07:15;17.33;;;4.60;;
39948;SDS011;29070;48.102;-1.652;2023-12-29T22:12:15;19.95;;;4.32;;
39948;SDS011;29070;48.102;-1.652;2023-12-29T22:17:16;16.70;;;3.97;;
39948;SDS011;29070;48.102;-1.652;2023-12-29T22:22:16;18.37;;;4.07;;
39948;SDS011;29070;48.102;-1.652;2023-12-29T22:27:16;22.23;;;4.30;;
39948;SDS011;29070;48.102;-1.652;2023-12-29T22:32:17;23.53;;;4.83;;
39948;SDS011;29070;48.102;-1.652;2023-12-29T22:37:17;9.53;;;3.73;;
39948;SDS011;29070;48.102;-1.652;2023-12-29T22:42:17;14.77;;;4.37;;
39948;SDS011;29070;48.102;-1.652;2023-12-29T22:47:18;10.37;;;4.33;;
39948;SDS011;29070;48.102;-1.652;2023-12-29T22:52:18;14.87;;;4.10;;
39948;SDS011;29070;48.102;-1.652;2023-12-29T22:57:18;15.87;;;4.53;;
39948;SDS011;29070;48.102;-1.652;2023-12-29T23:02:19;22.80;;;4.33;;
39948;SDS011;29070;48.102;-1.652;2023-12-29T23:07:19;15.67;;;3.80;;
39948;SDS011;29070;48.102;-1.652;2023-12-29T23:12:19;15.03;;;3.73;;
39948;SDS011;29070;48.102;-1.652;2023-12-29T23:17:20;13.00;;;3.30;;
39948;SDS011;29070;48.102;-1.652;2023-12-29T23:22:20;14.67;;;3.57;;
39948;SDS011;29070;48.102;-1.652;2023-12-29T23:27:22;18.70;;;3.97;;
39948;SDS011;29070;48.102;-1.652;2023-12-29T23:32:24;12.75;;;3.38;;
39948;SDS011;29070;48.102;-1.652;2023-12-29T23:37:24;16.70;;;3.15;;
39948;SDS011;29070;48.102;-1.652;2023-12-29T23:42:25;12.57;;;3.07;;
39948;SDS011;29070;48.102;-1.652;2023-12-29T23:47:25;18.48;;;2.85;;
39948;SDS011;29070;48.102;-1.652;2023-12-29T23:52:26;15.83;;;3.80;;
39948;SDS011;29070;48.102;-1.652;2023-12-29T23:57:26;13.03;;;2.53;;
